Time;durP1;ratioP1;P1;durP2;ratioP2;P2;SDS_P1;SDS_P2;PMS_P1;PMS_P2;Temp;Humidity;BMP_temperature;BMP_pressure;BME280_temperature;BME280_humidity;BME280_pressure;Samples;Min_cycle;Max_cycle;Signal;HPM_P1;HPM_P2
2021/08/02 00:00:52;;;;;;;9.70;8.75;;;15.70;99.90;;;;;;5076144;28;20204;-66
2021/08/02 00:03:27;;;;;;;8.88;8.02;;;15.80;99.90;;;;;;5076156;28;20192;-66
2021/08/02 00:05:58;;;;;;;9.30;8.30;;;15.70;99.90;;;;;;5075830;28;20692;-66
2021/08/02 00:08:36;;;;;;;9.95;7.95;;;15.80;99.90;;;;;;5075843;28;20689;-65
2021/08/02 00:11:04;;;;;;;9.55;8.63;;;15.70;99.90;;;;;;5076121;28;20306;-64
2021/08/02 00:13:35;;;;;;;8.88;8.07;;;15.70;99.90;;;;;;5075963;28;20219;-66
2021/08/02 00:16:04;;;;;;;10.15;8.02;;;15.70;99.90;;;;;;5075960;28;20291;-66
2021/08/02 00:18:35;;;;;;;8.95;8.00;;;15.80;99.90;;;;;;5075770;28;20187;-67
2021/08/02 00:21:06;;;;;;;8.63;7.82;;;15.80;99.90;;;;;;5075937;28;20184;-66
2021/08/02 00:23:39;;;;;;;8.52;7.70;;;15.90;99.90;;;;;;5075469;28;20600;-66
2021/08/02 00:26:08;;;;;;;8.00;7.20;;;15.90;99.90;;;;;;5075900;28;20177;-67
2021/08/02 00:28:36;;;;;;;7.90;7.10;;;16.00;99.90;;;;;;5075685;28;20287;-66
2021/08/02 00:31:05;;;;;;;9.63;7.30;;;16.10;99.90;;;;;;5075614;28;20200;-66
2021/08/02 00:33:34;;;;;;;8.05;7.25;;;16.20;99.90;;;;;;5075400;28;20205;-66
2021/08/02 00:36:07;;;;;;;8.52;7.63;;;16.20;99.90;;;;;;5075620;28;20238;-66
2021/08/02 00:38:39;;;;;;;9.60;8.60;;;16.10;99.90;;;;;;5075564;28;20185;-66
2021/08/02 00:41:19;;;;;;;9.10;7.93;;;16.00;99.90;;;;;;5075710;28;20181;-67
2021/08/02 00:44:32;;;;;;;8.48;7.63;;;15.90;99.90;;;;;;5075099;28;20310;-66
2021/08/02 00:47:04;;;;;;;8.02;7.30;;;15.80;99.90;;;;;;5074962;28;20228;-67
2021/08/02 00:49:37;;;;;;;7.70;6.75;;;15.60;99.90;;;;;;5075101;28;20276;-67
2021/08/02 00:52:06;;;;;;;7.60;6.80;;;15.50;99.90;;;;;;5075094;28;20284;-67
2021/08/02 00:54:36;;;;;;;5.60;5.00;;;15.40;99.90;;;;;;5074786;28;20715;-66
2021/08/02 00:57:05;;;;;;;6.00;5.40;;;15.40;99.90;;;;;;5075127;28;20291;-66
2021/08/02 00:59:33;;;;;;;6.47;5.88;;;15.30;99.90;;;;;;5075029;28;20203;-67
2021/08/02 01:02:01;;;;;;;6.22;5.63;;;15.30;99.90;;;;;;5074721;28;20816;-67
2021/08/02 01:04:32;;;;;;;7.35;5.70;;;15.20;99.90;;;;;;5074948;28;20659;-66
2021/08/02 01:07:02;;;;;;;6.78;5.78;;;15.20;99.90;;;;;;5074259;28;20513;-66
2021/08/02 01:09:32;;;;;;;6.30;5.70;;;15.20;99.90;;;;;;5074622;28;20235;-66
2021/08/02 01:12:02;;;;;;;7.60;6.17;;;15.30;99.90;;;;;;5074569;28;20644;-67
2021/08/02 01:14:30;;;;;;;5.70;4.95;;;15.20;99.90;;;;;;5074381;28;20254;-67
2021/08/02 01:16:59;;;;;;;5.78;5.28;;;15.20;99.90;;;;;;5074878;28;20256;-67
2021/08/02 01:19:28;;;;;;;6.93;5.82;;;15.10;99.90;;;;;;5074847;28;20223;-67
2021/08/02 01:22:00;;;;;;;6.15;5.22;;;15.10;99.90;;;;;;5074783;28;20197;-67
2021/08/02 01:24:33;;;;;;;6.35;5.75;;;15.10;99.90;;;;;;5075203;28;20556;-66
2021/08/02 01:27:28;;;;;;;6.07;5.40;;;15.10;99.90;;;;;;5076163;28;20562;-66
2021/08/02 01:30:19;;;;;;;6.20;5.50;;;15.10;99.90;;;;;;5079741;28;20712;-66
2021/08/02 01:32:48;;;;;;;7.00;6.30;;;15.10;99.90;;;;;;5079595;28;20270;-67
2021/08/02 01:35:17;;;;;;;7.25;6.55;;;15.10;99.90;;;;;;5074738;28;20252;-66
2021/08/02 01:37:46;;;;;;;7.88;6.47;;;15.20;99.90;;;;;;5074572;28;20193;-67
2021/08/02 01:40:15;;;;;;;7.60;6.78;;;15.20;99.90;;;;;;5074743;28;20228;-67
2021/08/02 01:42:43;;;;;;;7.40;6.70;;;15.20;99.90;;;;;;5074565;28;20284;-66
2021/08/02 01:45:11;;;;;;;7.50;6.80;;;15.20;99.90;;;;;;5073976;28;20231;-67
2021/08/02 01:47:48;;;;;;;8.00;6.35;;;15.10;99.90;;;;;;5074286;28;20310;-66
2021/08/02 01:50:28;;;;;;;6.82;6.22;;;15.20;99.90;;;;;;5074281;28;20284;-66
2021/08/02 01:53:05;;;;;;;6.90;6.30;;;15.30;99.90;;;;;;5073799;28;20288;-68
2021/08/02 01:55:35;;;;;;;6.80;6.20;;;15.30;99.90;;;;;;5074182;28;20203;-68
2021/08/02 01:58:07;;;;;;;6.68;5.97;;;15.30;99.90;;;;;;5074027;28;20296;-67
2021/08/02 02:00:39;;;;;;;8.23;6.50;;;15.30;99.90;;;;;;5074037;28;20188;-67
2021/08/02 02:03:12;;;;;;;7.45;6.72;;;15.30;99.90;;;;;;5073833;28;20181;-66
2021/08/02 02:05:44;;;;;;;7.60;6.43;;;15.30;99.90;;;;;;5073999;28;20218;-66
2021/08/02 02:08:16;;;;;;;8.00;6.97;;;15.30;99.90;;;;;;5073685;28;20277;-66
2021/08/02 02:10:49;;;;;;;7.28;6.53;;;15.30;99.90;;;;;;5073802;28;20213;-66
2021/08/02 02:13:20;;;;;;;8.27;6.72;;;15.30;99.90;;;;;;5073776;28;20185;-66
2021/08/02 02:15:52;;;;;;;7.25;6.60;;;15.30;99.90;;;;;;5073490;28;20622;-66
2021/08/02 02:18:22;;;;;;;7.60;6.90;;;15.30;99.90;;;;;;5072802;28;20185;-66
2021/08/02 02:20:51;;;;;;;6.90;6.20;;;15.30;99.90;;;;;;5073700;28;20222;-67
2021/08/02 02:23:19;;;;;;;7.30;6.60;;;15.30;99.90;;;;;;5073165;28;20201;-66
2021/08/02 02:25:49;;;;;;;8.82;6.28;;;15.30;99.90;;;;;;5073165;28;20203;-66
2021/08/02 02:28:18;;;;;;;7.35;6.65;;;15.30;99.90;;;;;;5073047;28;20678;-66
2021/08/02 02:30:48;;;;;;;7.43;6.55;;;15.30;99.90;;;;;;5073333;28;20284;-66
2021/08/02 02:33:17;;;;;;;6.82;5.82;;;15.40;99.90;;;;;;5073253;28;20208;-67
2021/08/02 02:35:47;;;;;;;6.15;5.55;;;15.30;99.90;;;;;;5073074;28;20216;-66
2021/08/02 02:38:17;;;;;;;6.55;5.95;;;15.30;99.90;;;;;;5072898;28;20629;-66
2021/08/02 02:40:46;;;;;;;6.28;5.68;;;15.30;99.90;;;;;;5072857;28;20930;-66
2021/08/02 02:43:17;;;;;;;6.43;5.82;;;15.30;99.90;;;;;;5072655;28;20189;-67
2021/08/02 02:45:47;;;;;;;7.65;6.07;;;15.30;99.90;;;;;;5069133;28;20212;-65
2021/08/02 02:48:16;;;;;;;6.57;5.88;;;15.30;99.90;;;;;;5073419;28;20291;-66
2021/08/02 02:50:47;;;;;;;8.07;6.88;;;15.20;99.90;;;;;;5073132;28;20201;-65
2021/08/02 02:53:16;;;;;;;6.85;6.20;;;15.30;99.90;;;;;;5072910;28;20181;-66
2021/08/02 02:55:46;;;;;;;6.95;6.25;;;15.30;99.90;;;;;;5072880;28;20221;-66
2021/08/02 02:58:14;;;;;;;7.70;6.65;;;15.30;99.90;;;;;;5072755;28;20231;-66
2021/08/02 03:00:44;;;;;;;8.07;6.50;;;15.30;99.90;;;;;;5072633;28;20201;-66
2021/08/02 03:03:17;;;;;;;6.97;6.30;;;15.30;99.90;;;;;;5072388;28;20201;-66
2021/08/02 03:05:45;;;;;;;7.35;6.57;;;15.30;99.90;;;;;;5072661;28;20197;-66
2021/08/02 03:08:16;;;;;;;6.88;6.18;;;15.30;99.90;;;;;;5072442;28;20287;-66
2021/08/02 03:10:44;;;;;;;7.15;6.45;;;15.30;99.90;;;;;;5072251;28;20248;-67
2021/08/02 03:13:12;;;;;;;6.95;6.35;;;15.30;99.90;;;;;;5072212;28;20638;-66
2021/08/02 03:15:40;;;;;;;7.32;6.63;;;15.30;99.90;;;;;;5072148;28;20196;-66
2021/08/02 03:18:09;;;;;;;7.47;6.78;;;15.30;99.90;;;;;;5072121;28;20205;-66
2021/08/02 03:20:37;;;;;;;7.63;6.80;;;15.30;99.90;;;;;;5072030;28;20728;-66
2021/08/02 03:23:08;;;;;;;7.38;6.55;;;15.30;99.90;;;;;;5072244;28;20204;-66
2021/08/02 03:25:40;;;;;;;7.85;6.68;;;15.30;99.90;;;;;;5071896;28;20643;-66
2021/08/02 03:28:15;;;;;;;6.93;6.22;;;15.30;99.90;;;;;;5071828;28;20185;-66
2021/08/02 03:30:44;;;;;;;6.78;6.07;;;15.30;99.90;;;;;;5072008;28;20184;-66
2021/08/02 03:33:16;;;;;;;6.70;6.00;;;15.30;99.90;;;;;;5072344;28;20200;-66
2021/08/02 03:35:46;;;;;;;7.88;6.18;;;15.30;99.90;;;;;;5072256;28;20188;-65
2021/08/02 03:38:19;;;;;;;6.30;5.68;;;15.30;99.90;;;;;;5072178;28;20181;-66
2021/08/02 03:40:48;;;;;;;6.53;5.93;;;15.30;99.90;;;;;;5072259;28;20193;-66
2021/08/02 03:43:17;;;;;;;6.90;6.20;;;15.30;99.90;;;;;;5072114;28;20197;-66
2021/08/02 03:45:46;;;;;;;7.13;6.43;;;15.30;99.90;;;;;;5072247;28;20185;-66
2021/08/02 03:48:18;;;;;;;9.18;7.15;;;15.30;99.90;;;;;;5072312;28;20269;-66
2021/08/02 03:50:47;;;;;;;7.70;6.90;;;15.30;99.90;;;;;;5072340;28;20293;-66
2021/08/02 03:53:15;;;;;;;7.97;7.28;;;15.30;99.90;;;;;;5072002;28;20299;-66
2021/08/02 03:55:44;;;;;;;8.85;7.95;;;15.30;99.90;;;;;;5071857;28;20240;-67
2021/08/02 03:58:12;;;;;;;8.55;7.75;;;15.40;99.90;;;;;;5072141;28;20227;-66
2021/08/02 04:00:41;;;;;;;8.75;7.85;;;15.40;99.90;;;;;;5072148;28;20242;-66
2021/08/02 04:03:09;;;;;;;11.27;8.57;;;15.40;99.90;;;;;;5071974;28;20228;-66
2021/08/02 04:05:38;;;;;;;9.07;8.18;;;15.40;99.90;;;;;;5072135;28;20224;-66
2021/08/02 04:08:06;;;;;;;10.20;9.20;;;15.50;99.90;;;;;;5071797;28;20201;-68
2021/08/02 04:10:34;;;;;;;10.13;9.13;;;15.40;99.90;;;;;;5072040;28;20207;-66
2021/08/02 04:13:02;;;;;;;9.60;8.60;;;15.40;99.90;;;;;;5071938;28;20197;-66
2021/08/02 04:15:30;;;;;;;10.45;9.40;;;15.40;99.90;;;;;;5071520;28;20300;-66
2021/08/02 04:17:58;;;;;;;10.20;9.20;;;15.40;99.90;;;;;;5071984;28;20223;-67
2021/08/02 04:20:26;;;;;;;12.07;9.40;;;15.50;99.90;;;;;;5071997;28;20204;-65
2021/08/02 04:22:55;;;;;;;11.85;9.93;;;15.60;99.90;;;;;;5071846;28;20197;-66
2021/08/02 04:25:22;;;;;;;11.35;9.73;;;15.50;99.90;;;;;;5071634;28;20876;-66
2021/08/02 04:27:54;;;;;;;11.48;9.98;;;15.60;99.90;;;;;;5071625;28;20618;-65
2021/08/02 04:30:22;;;;;;;12.77;10.20;;;15.60;99.90;;;;;;5071808;28;20207;-66
2021/08/02 04:32:50;;;;;;;11.35;10.25;;;15.70;99.90;;;;;;5071512;28;20590;-67
2021/08/02 04:35:18;;;;;;;11.73;10.50;;;15.70;99.90;;;;;;5071871;28;20197;-66
2021/08/02 04:37:46;;;;;;;12.38;10.77;;;15.80;99.90;;;;;;5071470;28;20308;-66
2021/08/02 04:40:15;;;;;;;12.65;10.80;;;15.70;99.90;;;;;;5071667;28;20200;-66
2021/08/02 04:42:43;;;;;;;10.80;9.70;;;15.70;99.90;;;;;;5075004;28;20201;-66
2021/08/02 04:45:12;;;;;;;12.63;11.32;;;15.80;99.90;;;;;;5075085;28;20321;-67
2021/08/02 04:47:40;;;;;;;11.60;10.40;;;15.80;99.90;;;;;;5075768;28;20192;-65
2021/08/02 04:50:09;;;;;;;11.35;10.25;;;15.80;99.90;;;;;;5075842;28;20201;-66
2021/08/02 04:52:37;;;;;;;10.55;9.45;;;15.80;99.90;;;;;;5075486;28;20295;-66
2021/08/02 04:55:06;;;;;;;11.35;9.73;;;15.80;99.90;;;;;;5075848;28;20201;-66
2021/08/02 04:57:36;;;;;;;11.35;9.45;;;15.90;99.90;;;;;;5075791;28;20224;-65
2021/08/02 05:00:04;;;;;;;10.10;9.10;;;15.90;99.90;;;;;;5075637;28;20295;-62
2021/08/02 05:02:32;;;;;;;10.68;9.57;;;15.90;99.90;;;;;;5075496;28;20259;-61
2021/08/02 05:05:00;;;;;;;10.38;9.18;;;15.90;99.90;;;;;;5075305;28;20204;-61
2021/08/02 05:07:28;;;;;;;10.00;9.00;;;15.90;99.90;;;;;;5075414;28;20200;-62
2021/08/02 05:09:56;;;;;;;10.30;9.07;;;15.90;99.90;;;;;;5075340;28;20300;-61
2021/08/02 05:12:24;;;;;;;10.85;9.10;;;15.90;99.90;;;;;;5075352;28;20201;-62
2021/08/02 05:14:53;;;;;;;9.80;8.23;;;15.90;99.90;;;;;;5075105;28;20296;-63
2021/08/02 05:17:21;;;;;;;10.20;9.02;;;15.90;99.90;;;;;;5075371;28;20216;-61
2021/08/02 05:19:49;;;;;;;9.75;8.70;;;15.90;99.90;;;;;;5075087;28;20201;-62
2021/08/02 05:22:16;;;;;;;10.07;8.88;;;15.90;99.90;;;;;;5075367;28;20234;-62
2021/08/02 05:24:44;;;;;;;9.30;8.40;;;16.00;99.90;;;;;;5075032;28;20295;-62
2021/08/02 05:27:12;;;;;;;9.18;8.30;;;16.00;99.90;;;;;;5075222;28;20192;-63
2021/08/02 05:29:40;;;;;;;8.95;8.05;;;16.00;99.90;;;;;;5075079;28;20201;-62
2021/08/02 05:32:09;;;;;;;8.48;7.63;;;16.10;99.90;;;;;;5074856;28;20228;-62
2021/08/02 05:34:40;;;;;;;8.65;7.55;;;16.10;99.90;;;;;;5075045;28;20205;-62
2021/08/02 05:37:08;;;;;;;8.98;8.07;;;16.00;99.90;;;;;;5074851;28;20215;-63
2021/08/02 05:39:36;;;;;;;8.82;8.00;;;16.00;99.90;;;;;;5075041;28;20197;-62
2021/08/02 05:42:04;;;;;;;8.57;7.60;;;16.00;99.90;;;;;;5074899;28;20197;-63
2021/08/02 05:44:33;;;;;;;8.32;7.53;;;15.90;99.90;;;;;;5074412;28;20235;-63
2021/08/02 05:47:01;;;;;;;6.20;5.60;;;15.90;99.90;;;;;;5074621;28;20292;-62
2021/08/02 05:49:30;;;;;;;6.53;5.28;;;15.80;99.90;;;;;;5074554;28;20200;-63
2021/08/02 05:52:00;;;;;;;4.82;4.38;;;15.70;99.90;;;;;;5074087;28;20601;-64
2021/08/02 05:54:28;;;;;;;7.78;5.90;;;15.60;99.90;;;;;;5074754;28;20200;-64
2021/08/02 05:56:56;;;;;;;6.55;5.95;;;15.60;99.90;;;;;;5074166;28;20707;-64
2021/08/02 05:59:23;;;;;;;7.53;5.82;;;15.70;99.90;;;;;;5074354;28;20201;-63
2021/08/02 06:01:51;;;;;;;6.32;5.72;;;15.80;99.90;;;;;;5074298;28;20291;-65
2021/08/02 06:04:19;;;;;;;5.88;5.28;;;15.90;99.90;;;;;;5074515;28;20200;-64
2021/08/02 06:06:48;;;;;;;5.25;4.75;;;15.90;99.90;;;;;;5074363;28;20201;-66
2021/08/02 06:09:16;;;;;;;6.63;6.03;;;16.00;99.90;;;;;;5075847;28;20193;-66
2021/08/02 06:11:44;;;;;;;5.90;5.40;;;16.10;99.90;;;;;;5080438;28;20272;-66
2021/08/02 06:14:12;;;;;;;6.50;5.45;;;16.20;99.90;;;;;;5079412;28;20201;-65
2021/08/02 06:16:40;;;;;;;5.35;4.82;;;16.20;99.90;;;;;;5078659;28;20211;-66
2021/08/02 06:19:08;;;;;;;5.90;4.63;;;16.30;99.90;;;;;;5073986;28;20298;-66
2021/08/02 06:21:35;;;;;;;5.63;5.13;;;16.20;99.90;;;;;;5073804;28;20295;-65
2021/08/02 06:24:05;;;;;;;5.38;4.60;;;16.30;99.90;;;;;;5072972;28;20675;-66
2021/08/02 06:26:33;;;;;;;5.00;4.50;;;16.40;99.90;;;;;;5073566;28;20197;-66
2021/08/02 06:29:01;;;;;;;5.55;4.60;;;16.40;99.90;;;;;;5073033;28;20673;-66
2021/08/02 06:31:29;;;;;;;5.18;4.68;;;16.50;99.90;;;;;;5073113;28;20760;-65
2021/08/02 06:33:57;;;;;;;5.15;4.65;;;16.50;99.90;;;;;;5073292;28;20236;-66
2021/08/02 06:36:25;;;;;;;6.05;5.25;;;16.60;99.90;;;;;;5073087;28;20574;-67
2021/08/02 06:38:53;;;;;;;6.03;5.43;;;16.70;99.90;;;;;;5072978;28;20331;-66
2021/08/02 06:41:22;;;;;;;6.25;4.70;;;16.70;99.90;;;;;;5073165;28;20200;-66
2021/08/02 06:43:50;;;;;;;5.43;4.85;;;16.90;99.90;;;;;;5072700;28;20327;-66
2021/08/02 06:46:18;;;;;;;4.65;4.25;;;17.10;99.90;;;;;;5072687;28;20236;-65
2021/08/02 06:48:46;;;;;;;4.93;4.35;;;17.40;99.90;;;;;;5072888;28;20205;-66
2021/08/02 06:51:14;;;;;;;6.00;4.20;;;17.60;99.90;;;;;;5072988;28;20200;-66
2021/08/02 06:53:42;;;;;;;4.90;4.00;;;17.80;99.90;;;;;;5072891;28;20234;-65
2021/08/02 06:56:09;;;;;;;4.40;4.00;;;17.90;99.90;;;;;;5072911;28;20204;-66
2021/08/02 06:58:39;;;;;;;5.88;4.13;;;17.90;99.90;;;;;;5072634;28;20220;-66
2021/08/02 07:01:07;;;;;;;4.32;4.00;;;18.10;99.90;;;;;;5072289;28;20659;-65
2021/08/02 07:03:35;;;;;;;4.95;4.50;;;18.20;99.90;;;;;;5072319;28;20201;-66
2021/08/02 07:06:03;;;;;;;4.65;3.30;;;18.30;99.90;;;;;;5072703;28;20207;-66
2021/08/02 07:08:31;;;;;;;5.65;4.05;;;18.50;99.90;;;;;;5072206;28;20304;-65
2021/08/02 07:10:59;;;;;;;5.63;3.65;;;18.60;99.90;;;;;;5072150;28;20296;-65
2021/08/02 07:13:27;;;;;;;4.10;3.75;;;18.80;99.90;;;;;;5072677;28;20200;-65
2021/08/02 07:15:59;;;;;;;3.80;3.38;;;19.00;99.90;;;;;;5072533;28;20196;-66
2021/08/02 07:18:27;;;;;;;4.97;3.58;;;19.00;99.90;;;;;;5071926;28;20219;-66
2021/08/02 07:20:55;;;;;;;5.20;3.20;;;19.00;99.90;;;;;;5071942;28;20676;-66
2021/08/02 07:23:22;;;;;;;4.03;3.63;;;18.90;99.90;;;;;;5071986;28;20898;-66
2021/08/02 07:25:50;;;;;;;4.25;3.50;;;19.00;99.90;;;;;;5072272;28;20291;-66
2021/08/02 07:28:18;;;;;;;4.07;3.20;;;19.10;99.90;;;;;;5072413;28;20203;-66
2021/08/02 07:30:46;;;;;;;4.65;3.40;;;19.30;99.90;;;;;;5072175;28;20295;-65
2021/08/02 07:33:15;;;;;;;5.85;3.45;;;19.10;99.90;;;;;;5072368;28;20262;-66
2021/08/02 07:35:43;;;;;;;4.18;3.10;;;19.00;99.90;;;;;;5071899;28;20668;-66
2021/08/02 07:38:12;;;;;;;3.97;3.42;;;18.70;99.90;;;;;;5051998;28;20202;-65
2021/08/02 07:40:40;;;;;;;6.53;3.50;;;18.50;99.90;;;;;;5051858;28;20296;-65
2021/08/02 07:43:08;;;;;;;4.30;3.30;;;18.30;99.90;;;;;;5052234;28;20259;-65
2021/08/02 07:45:36;;;;;;;5.72;3.20;;;18.00;99.90;;;;;;5051541;28;20225;-65
2021/08/02 07:48:04;;;;;;;5.40;3.15;;;18.10;99.90;;;;;;5052092;28;20201;-66
2021/08/02 07:50:34;;;;;;;3.83;2.78;;;18.20;99.90;;;;;;5052082;28;20201;-65
2021/08/02 07:53:02;;;;;;;5.35;2.90;;;18.20;99.90;;;;;;5052025;28;20209;-65
2021/08/02 07:55:30;;;;;;;3.17;2.70;;;18.00;99.90;;;;;;5051759;28;20695;-66
2021/08/02 07:57:57;;;;;;;4.93;2.47;;;18.00;99.90;;;;;;5052022;28;20315;-66
2021/08/02 08:00:25;;;;;;;3.20;2.55;;;18.10;99.90;;;;;;5051522;28;20708;-65
2021/08/02 08:02:54;;;;;;;3.72;3.00;;;18.10;99.90;;;;;;5052006;28;20292;-67
2021/08/02 08:05:22;;;;;;;5.95;3.40;;;18.30;99.90;;;;;;5051917;28;20209;-66
2021/08/02 08:07:52;;;;;;;3.92;3.20;;;18.30;99.90;;;;;;5051434;28;20680;-66
2021/08/02 08:10:23;;;;;;;6.20;3.60;;;18.50;99.90;;;;;;5051611;28;20201;-65
2021/08/02 08:12:52;;;;;;;3.50;3.20;;;18.60;99.90;;;;;;5051656;28;20197;-65
2021/08/02 08:15:22;;;;;;;3.20;2.80;;;18.90;99.90;;;;;;5051716;28;20295;-66
2021/08/02 08:17:50;;;;;;;3.42;3.13;;;19.10;99.90;;;;;;5055602;28;20305;-66
2021/08/02 08:20:20;;;;;;;3.33;3.03;;;19.40;99.90;;;;;;5055729;28;20223;-65
2021/08/02 08:22:48;;;;;;;3.17;2.92;;;19.60;99.90;;;;;;5055767;28;20240;-66
2021/08/02 08:25:17;;;;;;;3.10;2.80;;;19.70;99.90;;;;;;5055495;28;20302;-65
2021/08/02 08:27:45;;;;;;;4.38;3.13;;;19.90;99.90;;;;;;5055604;28;20296;-66
2021/08/02 08:30:15;;;;;;;3.67;2.80;;;20.20;99.90;;;;;;5055270;28;20302;-66
2021/08/02 08:32:43;;;;;;;2.88;2.67;;;20.40;99.90;;;;;;5055375;28;20228;-66
2021/08/02 08:35:13;;;;;;;3.10;2.85;;;20.60;99.90;;;;;;5055581;28;20252;-66
2021/08/02 08:37:41;;;;;;;2.92;2.30;;;20.70;99.90;;;;;;5071553;28;20207;-65
2021/08/02 08:40:11;;;;;;;2.40;2.20;;;20.90;99.90;;;;;;5075171;28;20221;-65
2021/08/02 08:42:42;;;;;;;2.67;2.03;;;21.20;99.90;;;;;;5075483;28;20232;-65
2021/08/02 08:45:12;;;;;;;2.30;2.00;;;21.50;99.90;;;;;;5074925;28;20297;-66
2021/08/02 08:47:40;;;;;;;2.80;1.90;;;21.80;99.90;;;;;;5074708;28;20844;-66
2021/08/02 08:50:10;;;;;;;1.70;1.60;;;21.50;99.90;;;;;;5075100;28;20287;-66
2021/08/02 08:52:39;;;;;;;1.92;1.65;;;21.10;99.90;;;;;;5074997;28;20204;-66
2021/08/02 08:55:10;;;;;;;2.25;1.48;;;20.80;99.90;;;;;;5075063;28;20292;-65
2021/08/02 08:57:38;;;;;;;3.65;1.60;;;20.70;99.90;;;;;;5074929;28;20205;-66
2021/08/02 09:00:19;;;;;;;2.10;1.80;;;20.60;99.90;;;;;;5074889;28;20311;-65
2021/08/02 09:02:47;;;;;;;2.22;1.65;;;20.30;99.90;;;;;;5075009;28;20181;-66
2021/08/02 09:05:17;;;;;;;2.63;1.67;;;20.10;99.90;;;;;;5075433;28;20291;-66
2021/08/02 09:07:45;;;;;;;1.65;1.55;;;20.10;99.90;;;;;;5074927;28;20210;-66
2021/08/02 09:10:15;;;;;;;1.90;1.60;;;20.10;99.90;;;;;;5074671;28;20199;-66
2021/08/02 09:12:50;;;;;;;4.43;1.63;;;20.10;99.90;;;;;;5074502;28;20743;-65
2021/08/02 09:15:31;;;;;;;2.10;1.60;;;20.20;99.90;;;;;;5074411;28;20211;-66
2021/08/02 09:17:58;;;;;;;2.38;1.85;;;20.20;99.90;;;;;;5074531;28;20191;-66
2021/08/02 09:20:27;;;;;;;2.10;1.73;;;20.20;99.90;;;;;;5074689;28;20243;-65
2021/08/02 09:23:03;;;;;;;1.40;1.30;;;20.50;99.90;;;;;;5074565;28;20205;-65
2021/08/02 09:25:35;;;;;;;1.55;1.42;;;20.50;99.90;;;;;;5074641;28;20519;-65
2021/08/02 09:28:12;;;;;;;2.35;1.60;;;20.70;99.90;;;;;;5074189;28;20207;-65
2021/08/02 09:30:54;;;;;;;2.08;1.50;;;20.80;99.90;;;;;;5074472;28;20177;-65
2021/08/02 09:33:23;;;;;;;3.05;1.70;;;21.00;99.90;;;;;;5074550;28;20192;-65
2021/08/02 09:35:52;;;;;;;1.80;1.67;;;21.10;99.90;;;;;;5074015;28;20287;-66
2021/08/02 09:38:22;;;;;;;1.92;1.80;;;21.00;99.90;;;;;;5074205;28;20208;-64
2021/08/02 09:40:51;;;;;;;3.92;1.80;;;20.90;99.90;;;;;;5074119;28;20220;-65
2021/08/02 09:43:20;;;;;;;4.70;1.80;;;21.10;99.90;;;;;;5074166;28;20197;-67
2021/08/02 09:46:07;;;;;;;3.45;1.80;;;21.30;99.90;;;;;;5074298;28;20212;-65
2021/08/02 09:48:38;;;;;;;2.13;1.60;;;21.40;99.90;;;;;;5074210;28;20185;-66
2021/08/02 09:51:10;;;;;;;1.67;1.58;;;21.50;99.90;;;;;;5074111;28;20520;-66
2021/08/02 09:53:39;;;;;;;1.60;1.35;;;21.60;99.90;;;;;;5073940;28;20190;-65
2021/08/02 09:56:09;;;;;;;1.50;1.40;;;21.60;99.90;;;;;;5073991;28;20629;-67
2021/08/02 09:58:37;;;;;;;1.75;1.55;;;21.50;99.90;;;;;;5073619;28;20531;-65
2021/08/02 10:01:06;;;;;;;1.85;1.58;;;21.40;99.90;;;;;;5073302;28;20228;-66
2021/08/02 10:03:35;;;;;;;1.58;1.48;;;21.10;99.90;;;;;;5073989;28;20312;-66
2021/08/02 10:06:04;;;;;;;2.08;1.50;;;20.90;99.90;;;;;;5073401;28;20660;-66
2021/08/02 10:08:33;;;;;;;1.60;1.50;;;20.70;99.90;;;;;;5073386;28;20201;-67
2021/08/02 10:11:01;;;;;;;1.33;1.23;;;20.70;99.90;;;;;;5073803;28;20228;-66
2021/08/02 10:13:32;;;;;;;2.63;1.48;;;20.60;99.90;;;;;;5073652;28;20203;-66
2021/08/02 10:16:05;;;;;;;4.28;1.58;;;20.50;99.90;;;;;;5073474;28;20192;-66
2021/08/02 10:18:34;;;;;;;1.55;1.45;;;20.50;99.90;;;;;;5073363;28;20663;-65
2021/08/02 10:21:03;;;;;;;2.55;1.67;;;20.40;99.90;;;;;;5073573;28;20225;-66
2021/08/02 10:23:31;;;;;;;1.50;1.30;;;20.40;99.90;;;;;;5073329;28;20204;-66
2021/08/02 10:25:59;;;;;;;1.75;1.60;;;20.40;99.90;;;;;;5073298;28;20207;-65
2021/08/02 10:28:27;;;;;;;1.88;1.50;;;20.40;99.90;;;;;;5073064;28;20657;-65
2021/08/02 10:31:03;;;;;;;2.08;1.42;;;20.30;99.90;;;;;;5072708;28;20197;-65
2021/08/02 10:33:36;;;;;;;2.10;1.58;;;20.40;99.90;;;;;;5073121;28;20204;-65
2021/08/02 10:36:14;;;;;;;1.50;1.40;;;20.50;99.90;;;;;;5073147;28;20201;-66
2021/08/02 10:38:42;;;;;;;1.40;1.30;;;20.80;99.90;;;;;;5072206;28;20203;-66
2021/08/02 10:41:10;;;;;;;1.60;1.30;;;20.90;99.90;;;;;;5072533;28;20319;-65
2021/08/02 10:43:40;;;;;;;1.65;1.48;;;21.00;99.90;;;;;;5072766;28;20272;-65
2021/08/02 10:46:20;;;;;;;2.47;1.63;;;21.10;99.90;;;;;;5073066;28;20188;-65
2021/08/02 10:48:50;;;;;;;1.33;1.23;;;21.30;99.90;;;;;;5072700;28;20691;-64
2021/08/02 10:51:21;;;;;;;1.73;1.40;;;21.40;99.90;;;;;;5078536;28;20177;-66
2021/08/02 10:53:58;;;;;;;3.25;1.33;;;21.40;99.90;;;;;;5081378;28;20208;-65
2021/08/02 10:56:27;;;;;;;1.42;1.20;;;21.50;99.90;;;;;;5080298;28;20236;-65
2021/08/02 10:58:56;;;;;;;1.40;1.30;;;21.50;99.90;;;;;;5072849;28;20208;-66
2021/08/02 11:01:26;;;;;;;1.25;1.15;;;21.40;99.90;;;;;;5072827;28;20282;-65
2021/08/02 11:03:57;;;;;;;2.10;1.40;;;21.40;99.90;;;;;;5072425;28;20862;-65
2021/08/02 11:06:33;;;;;;;1.35;1.20;;;21.50;99.90;;;;;;5072665;28;20197;-66
2021/08/02 11:09:01;;;;;;;1.40;1.30;;;21.60;99.90;;;;;;5072676;28;20201;-65
2021/08/02 11:11:43;;;;;;;2.10;1.50;;;21.70;99.90;;;;;;5072636;28;20185;-66
2021/08/02 11:14:13;;;;;;;1.17;1.08;;;21.80;99.90;;;;;;5072366;28;20196;-66
2021/08/02 11:16:42;;;;;;;1.63;1.40;;;21.70;99.90;;;;;;5072504;28;20292;-66
2021/08/02 11:19:20;;;;;;;2.13;1.30;;;21.60;99.90;;;;;;5072394;28;20204;-65
2021/08/02 11:21:48;;;;;;;2.13;1.20;;;21.60;99.90;;;;;;5072430;28;20227;-66
2021/08/02 11:24:16;;;;;;;1.70;1.20;;;21.60;99.90;;;;;;5072292;28;20197;-65
2021/08/02 11:26:53;;;;;;;1.30;1.20;;;21.70;99.90;;;;;;5072334;28;20185;-66
2021/08/02 11:29:22;;;;;;;1.67;1.20;;;21.60;99.90;;;;;;5072160;28;20185;-65
2021/08/02 11:31:58;;;;;;;2.25;1.27;;;21.50;99.90;;;;;;5072281;28;20211;-65
2021/08/02 11:34:29;;;;;;;1.50;1.27;;;21.40;99.90;;;;;;5072220;28;20180;-65
2021/08/02 11:37:01;;;;;;;1.35;1.00;;;21.50;99.90;;;;;;5072098;28;20203;-65
2021/08/02 11:39:30;;;;;;;1.45;1.20;;;21.70;99.90;;;;;;5071960;28;20617;-65
2021/08/02 11:42:02;;;;;;;2.50;1.20;;;21.70;99.90;;;;;;5072107;28;20228;-66
2021/08/02 11:44:31;;;;;;;1.65;1.55;;;21.90;99.90;;;;;;5071660;28;20228;-66
2021/08/02 11:46:59;;;;;;;2.28;1.50;;;22.10;99.90;;;;;;5072212;28;20219;-65
2021/08/02 11:49:29;;;;;;;1.35;1.00;;;22.40;99.90;;;;;;5072003;28;20207;-66
2021/08/02 11:51:57;;;;;;;1.52;1.33;;;22.40;99.90;;;;;;5072044;28;20250;-66
2021/08/02 11:54:26;;;;;;;1.20;1.10;;;22.40;99.90;;;;;;5072004;28;20243;-66
2021/08/02 11:56:54;;;;;;;2.15;1.27;;;22.30;99.90;;;;;;5072163;28;20201;-67
2021/08/02 11:59:23;;;;;;;1.92;1.10;;;22.40;99.90;;;;;;5071856;28;20197;-66
2021/08/02 12:01:53;;;;;;;1.48;1.20;;;22.30;99.90;;;;;;5071836;28;20216;-66
2021/08/02 12:04:22;;;;;;;2.42;1.30;;;22.40;99.90;;;;;;5072034;28;20239;-65
2021/08/02 12:06:53;;;;;;;1.95;1.20;;;22.40;99.90;;;;;;5072017;28;20200;-66
2021/08/02 12:09:34;;;;;;;1.75;1.52;;;22.30;99.90;;;;;;5071868;28;20238;-66
2021/08/02 12:12:02;;;;;;;1.98;1.40;;;22.40;99.90;;;;;;5072103;28;20590;-66
2021/08/02 12:14:32;;;;;;;1.80;1.40;;;22.60;99.90;;;;;;5071691;28;20244;-65
2021/08/02 12:17:07;;;;;;;1.88;1.20;;;22.80;99.90;;;;;;5071866;28;20284;-65
2021/08/02 12:19:45;;;;;;;1.50;1.38;;;22.70;99.90;;;;;;5071949;28;20261;-66
2021/08/02 12:22:23;;;;;;;1.20;1.10;;;22.50;99.90;;;;;;5071437;28;20241;-66
2021/08/02 12:24:53;;;;;;;1.33;1.00;;;22.60;99.90;;;;;;5071311;28;20673;-65
2021/08/02 12:27:21;;;;;;;1.52;1.42;;;22.70;99.90;;;;;;5071524;28;20197;-65
2021/08/02 12:30:00;;;;;;;1.65;1.23;;;22.70;99.90;;;;;;5071568;28;20303;-66
2021/08/02 12:32:39;;;;;;;2.17;1.42;;;22.70;99.90;;;;;;5071656;28;20283;-65
2021/08/02 12:35:10;;;;;;;1.70;1.20;;;22.70;99.90;;;;;;5071308;28;20683;-66
2021/08/02 12:37:40;;;;;;;2.15;1.10;;;22.90;99.90;;;;;;5071334;28;20699;-65
2021/08/02 12:40:11;;;;;;;2.90;1.15;;;23.30;99.90;;;;;;5071589;28;20288;-64
2021/08/02 12:42:41;;;;;;;3.03;1.58;;;23.40;99.90;;;;;;5071591;28;20201;-64
2021/08/02 12:45:12;;;;;;;1.88;1.10;;;23.60;99.90;;;;;;5071106;28;20286;-66
2021/08/02 12:47:49;;;;;;;1.98;1.25;;;23.60;99.90;;;;;;5071578;28;20589;-64
2021/08/02 12:50:19;;;;;;;3.67;1.42;;;23.70;99.90;;;;;;5071260;28;20243;-66
2021/08/02 12:52:49;;;;;;;1.75;1.23;;;23.70;99.90;;;;;;5071392;28;20201;-66
2021/08/02 12:55:17;;;;;;;1.60;1.20;;;23.90;99.90;;;;;;5071633;28;20601;-65
2021/08/02 12:57:45;;;;;;;2.08;1.27;;;24.10;99.90;;;;;;5071264;28;20296;-65
2021/08/02 13:00:14;;;;;;;1.27;1.13;;;24.20;99.90;;;;;;5071335;28;20211;-66